Gillette Campbell County Airport
KGCC : now visible

Airfield :











YOU CAN JOIN US ON...

 
LOGIN :

Register | Disclaimer

   EN    FR    IT 

 









Legend :    VFR   Marginal VFR   IFR   Intensive IFR   Very Intensive IFR
Visi :
Ceiling :
>= 8 km
>= 3000ft
5 to 8 km
1000 to 3000 ft
1500m to 5 km
500 to 1000 ft
800 to 1500m
200 to 500 ft
< 800m
< 200 ft
Symbols :   Thunderstorms  Fog  Heavy snow  Heavy precipitations  Wind > 20 kt







- Airport Elevation : 4365 ft


KGCC - Gillette Campbell County

CURRENT METAR :
  • 260353Z AUTO 09004KT 10SM CLR 14/13 A2993 RMK AO2 LTG DSNT SW RAB0256E08B14E19 SLP098 P0001 T01440128 $

EXPIRED METARs :
  • 260309Z AUTO 08003KT 10SM BKN100 15/14 A2992 RMK AO2 RAB0256E08 P0001 T01500139 $
  • 260253Z AUTO 02007KT 10SM FEW029 SCT100 15/13 A2993 RMK AO2 PK WND 03033/0232 WSHFT 0220 LTG DSNT E RAB11E44 TSB06E26 PRESRR SLP099 P0001 60046 T01500133 53016 $
  • 260240Z AUTO 01009G33KT 10SM VCTS -RA FEW027 BKN100 15/13 A2990 RMK AO2 PK WND 03033/0232 WSHFT 0220 LTG DSNT E AND SE RAB11 TSB06E26 P0001 T01500128 $
  • 260232Z AUTO 03024G33KT 9SM VCTS -RA FEW048 BKN090 OVC110 15/13 A2985 RMK AO2 PK WND 03033/0232 LTG DSNT NE AND E RAB11 TSB06E26 PRESFR P0001 T01500128 $
  • 260212Z AUTO 34012KT 8SM -TSRA BKN090 OVC110 15/13 A2994 RMK AO2 LTG DSNT E RAB11 TSB06 P0000 T01500128 $
  • 260153Z AUTO 35011KT 10SM SCT080 BKN095 16/13 A2990 RMK AO2 PK WND 01041/0056 WSHFT 0041 RAE12 TSE10 SLP094 P0012 T01560133 $
  • 260133Z AUTO 36009G20KT 10SM OVC080 15/14 A2988 RMK AO2 PK WND 01041/0056 WSHFT 0041 LTG DSNT E AND SE RAE12 TSE10 P0012 T01500139 $

TAF KGCC
Valid from the 26 at 04:00 until the 27 at 00:00 UTC


260334Z 2604/2624 35011KT P6SM VCSH SCT060 BKN100
FM260500 31007KT P6SM SCT100
No reported NOTAMs for that airfield.



MET'MAP, your aeronautical weather chart ! - Copyright ORBIFLY December 2007 - Disclaimer

ORBIFLY MET'MAP TEAM :

Programming & Development : Alexandra Zaïnal
Concept & Development : Baudouin d'Aumeries
Co-Development & Prog : Marc-Olivier Méhu
Technical & hardware support : Manuel Goepfert

Contact : metmap@orbifly.com




SOURCES & CREDITS :

   NOAA       Earth
Advisory